createdAt,value
2019-03-22T00:02:30.899Z,102020.97
2019-03-22T00:07:33.341Z,102008.69
2019-03-22T00:12:35.997Z,102010.34
2019-03-22T00:17:38.557Z,102014.18
2019-03-22T00:22:42.177Z,102010.73
2019-03-22T00:27:45.003Z,102004.12
2019-03-22T00:32:47.434Z,102009.99
2019-03-22T00:37:50.003Z,102008.38
2019-03-22T00:42:52.457Z,102009.22
2019-03-22T00:47:54.913Z,102011.41
2019-03-22T00:52:57.572Z,102004.71
2019-03-22T00:58:00.121Z,102000.55
2019-03-22T01:03:03.237Z,101997.97
2019-03-22T01:08:05.862Z,101992.91
2019-03-22T01:13:08.310Z,101991.34
2019-03-22T01:18:10.879Z,101988.73
2019-03-22T01:23:14.311Z,101993.77
2019-03-22T01:28:16.789Z,102004.31
2019-03-22T01:33:19.412Z,102008.20
2019-03-22T01:38:21.936Z,102008.61
2019-03-22T01:43:24.490Z,102005.30
2019-03-22T01:48:33.096Z,102005.22
2019-03-22T01:53:36.600Z,102003.62
2019-03-22T01:58:39.054Z,102002.51
2019-03-22T02:03:41.694Z,101998.27
2019-03-22T02:08:44.233Z,102001.61
2019-03-22T02:19:43.844Z,102004.81
2019-03-22T02:24:46.233Z,101999.31
2019-03-22T02:29:48.603Z,102001.74
2019-03-22T02:34:51.003Z,102001.30
2019-03-22T02:39:53.683Z,101989.64
2019-03-22T02:44:56.404Z,101982.92
2019-03-22T02:56:15.441Z,101987.54
2019-03-22T03:01:18.254Z,101987.05
2019-03-22T03:06:20.634Z,101994.28
2019-03-22T03:11:23.193Z,101992.78
2019-03-22T03:16:25.591Z,101986.19
2019-03-22T03:21:27.992Z,101978.66
2019-03-22T03:26:30.356Z,101975.30
2019-03-22T03:31:32.971Z,101989.34
2019-03-22T03:36:35.330Z,101988.04
2019-03-22T03:41:37.715Z,101993.51
2019-03-22T03:46:40.190Z,102001.03
2019-03-22T03:51:42.709Z,102004.56
2019-03-22T03:56:45.108Z,101991.72
2019-03-22T04:01:47.487Z,101985.87
2019-03-22T04:06:49.852Z,101987.06
2019-03-22T04:11:52.237Z,101992.86
2019-03-22T04:16:54.592Z,101989.73
2019-03-22T04:21:56.973Z,101987.08
2019-03-22T04:26:59.344Z,101990.95
2019-03-22T04:32:01.721Z,101990.67
2019-03-22T04:37:04.175Z,102006.69
2019-03-22T04:42:06.653Z,101993.15
2019-03-22T04:47:10.724Z,101988.89
2019-03-22T04:52:14.240Z,102002.78
2019-03-22T04:57:18.420Z,102014.48
2019-03-22T05:02:21.628Z,102004.02
2019-03-22T05:07:24.197Z,102016.05
2019-03-22T05:12:27.066Z,102021.93
2019-03-22T05:17:30.854Z,102014.39
2019-03-22T05:22:36.123Z,102028.02
2019-03-22T05:27:41.701Z,102029.59
2019-03-22T05:32:44.085Z,102022.40
2019-03-22T05:37:46.445Z,102028.70
2019-03-22T05:42:49.009Z,102035.32
2019-03-22T05:47:51.474Z,102031.83
2019-03-22T05:52:53.891Z,102037.84
2019-03-22T05:57:56.251Z,102038.86
2019-03-22T06:02:58.637Z,102045.55
2019-03-22T06:08:02.100Z,102049.59
2019-03-22T06:13:05.476Z,102055.16
2019-03-22T06:18:07.852Z,102051.50
2019-03-22T06:23:10.341Z,102048.35
2019-03-22T06:28:12.698Z,102057.44
2019-03-22T06:33:15.076Z,102066.11
2019-03-22T06:38:17.432Z,102061.08
2019-03-22T06:43:20.049Z,102063.38
2019-03-22T06:48:22.419Z,102073.31
2019-03-22T06:53:25.131Z,102073.08
2019-03-22T06:58:27.521Z,102075.41
2019-03-22T07:03:31.021Z,102078.03
2019-03-22T07:08:33.577Z,102077.55
2019-03-22T07:13:37.271Z,102093.35
2019-03-22T07:18:39.681Z,102101.88
2019-03-22T07:23:42.170Z,102102.12
2019-03-22T07:28:44.554Z,102095.77
2019-03-22T07:33:47.043Z,102081.30
2019-03-22T07:38:49.439Z,102090.09
2019-03-22T07:43:51.809Z,102095.14
2019-03-22T07:48:54.191Z,102091.05
2019-03-22T07:53:57.751Z,102074.98
2019-03-22T07:59:00.106Z,102065.25
2019-03-22T08:04:02.698Z,102078.80
2019-03-22T08:09:07.828Z,102081.61
2019-03-22T08:14:10.326Z,102081.37
2019-03-22T08:19:12.803Z,102087.47
2019-03-22T08:24:16.227Z,102082.70
2019-03-22T08:29:18.671Z,102084.77
2019-03-22T08:34:21.071Z,102086.80
2019-03-22T08:39:23.535Z,102091.81
2019-03-22T08:44:25.907Z,102093.02
2019-03-22T08:49:28.415Z,102091.52
2019-03-22T08:54:30.981Z,102082.02
2019-03-22T08:59:33.451Z,102085.49
2019-03-22T09:04:35.807Z,102075.48
2019-03-22T09:09:41.654Z,102087.19
2019-03-22T09:14:42.507Z,102083.00
2019-03-22T09:19:44.972Z,102084.37
2019-03-22T09:24:47.350Z,102083.16
2019-03-22T09:29:49.747Z,102076.81
2019-03-22T09:34:52.165Z,102073.61
2019-03-22T09:39:54.492Z,102063.71
2019-03-22T09:44:56.993Z,102063.95
2019-03-22T09:49:59.693Z,102057.83
2019-03-22T09:55:12.739Z,102058.36
2019-03-22T10:00:07.902Z,102046.48
2019-03-22T10:05:10.276Z,102043.41
2019-03-22T10:10:12.766Z,102050.67
2019-03-22T10:15:15.170Z,102049.39
2019-03-22T10:20:17.760Z,102035.38
2019-03-22T10:25:20.220Z,102031.38
2019-03-22T10:30:26.911Z,102023.36
2019-03-22T10:35:29.337Z,102020.91
2019-03-22T10:40:31.751Z,102023.76
2019-03-22T10:45:34.122Z,102009.00
2019-03-22T10:50:36.528Z,102006.63
2019-03-22T10:55:39.049Z,102003.30
2019-03-22T11:00:41.649Z,102003.80
2019-03-22T11:05:44.050Z,101986.48
2019-03-22T11:10:46.571Z,101991.69
2019-03-22T11:15:49.048Z,101972.37
2019-03-22T11:20:51.405Z,101970.55
2019-03-22T11:26:00.287Z,101969.19
2019-03-22T11:31:04.647Z,101968.63
2019-03-22T11:36:03.260Z,101963.58
2019-03-22T11:41:05.887Z,101956.02
2019-03-22T11:46:08.641Z,101945.23
2019-03-22T11:51:11.103Z,101941.00
2019-03-22T11:56:13.554Z,101934.23
2019-03-22T12:01:20.389Z,101934.55
2019-03-22T12:06:21.190Z,101915.36
2019-03-22T12:11:23.552Z,101909.72
2019-03-22T12:16:25.919Z,101897.72
2019-03-22T12:21:28.396Z,101900.80
2019-03-22T12:26:30.783Z,101893.25
2019-03-22T12:31:33.400Z,101885.41
2019-03-22T12:36:36.904Z,101884.48
2019-03-22T12:41:39.285Z,101877.47
2019-03-22T12:46:41.764Z,101853.13
2019-03-22T12:51:44.139Z,101847.55
2019-03-22T12:56:46.559Z,101845.05
2019-03-22T13:01:48.931Z,101836.95
2019-03-22T13:06:53.186Z,101830.52
2019-03-22T13:11:55.703Z,101824.48
2019-03-22T13:16:58.174Z,101822.81
2019-03-22T13:22:00.629Z,101816.45
2019-03-22T13:27:04.573Z,101812.73
2019-03-22T13:32:06.948Z,101799.10
2019-03-22T13:37:09.451Z,101793.80
2019-03-22T13:42:11.816Z,101783.97
2019-03-22T13:47:15.248Z,101777.09
2019-03-22T13:52:17.684Z,101775.14
2019-03-22T13:57:20.297Z,101769.89
2019-03-22T14:02:23.078Z,101763.54
2019-03-22T14:07:25.556Z,101752.30
2019-03-22T14:12:36.757Z,101747.18
2019-03-22T14:17:32.338Z,101746.95
2019-03-22T14:22:34.734Z,101720.05
2019-03-22T14:27:37.459Z,101722.95
2019-03-22T14:32:39.831Z,101716.59
2019-03-22T14:37:42.199Z,101707.59
2019-03-22T14:42:44.580Z,101699.91
2019-03-22T14:47:47.372Z,101691.58
2019-03-22T14:52:49.765Z,101680.86
2019-03-22T14:57:52.623Z,101678.44
2019-03-22T15:02:55.270Z,101664.49
2019-03-22T15:07:58.060Z,101663.11
2019-03-22T15:13:00.458Z,101652.75
2019-03-22T15:18:16.430Z,101643.43
2019-03-22T15:23:50.722Z,101635.36
2019-03-22T15:29:11.659Z,101620.64
2019-03-22T15:34:28.209Z,101620.64
2019-03-22T15:39:51.121Z,101619.50
2019-03-22T15:44:53.642Z,101611.64
2019-03-22T15:49:56.100Z,101609.91
2019-03-22T15:54:58.530Z,101594.09
2019-03-22T16:00:01.117Z,101594.21
2019-03-22T16:05:05.145Z,101597.39
2019-03-22T16:10:08.361Z,101592.08
2019-03-22T16:15:12.464Z,101596.95
2019-03-22T16:20:16.018Z,101595.33
2019-03-22T16:25:18.628Z,101592.46
2019-03-22T16:30:21.301Z,101593.88
2019-03-22T16:35:23.771Z,101588.73
2019-03-22T16:40:26.178Z,101586.73
2019-03-22T16:45:39.644Z,101582.05
2019-03-22T16:51:07.191Z,101584.70
2019-03-22T16:56:09.641Z,101584.80
2019-03-22T17:01:13.221Z,101582.11
2019-03-22T17:06:15.603Z,101583.31
2019-03-22T17:11:17.980Z,101586.86
2019-03-22T17:16:20.350Z,101587.87
2019-03-22T17:21:22.832Z,101581.19
2019-03-22T17:26:25.252Z,101588.33
2019-03-22T17:31:27.614Z,101590.67
2019-03-22T17:36:30.013Z,101585.94
2019-03-22T17:41:32.426Z,101585.48
2019-03-22T17:46:34.787Z,101584.01
2019-03-22T17:51:37.150Z,101589.78
2019-03-22T17:56:39.623Z,101596.34
2019-03-22T18:01:42.003Z,101589.87
2019-03-22T18:06:44.406Z,101596.14
2019-03-22T18:11:47.576Z,101599.02
2019-03-22T18:16:50.143Z,101602.05
2019-03-22T18:21:54.531Z,101594.38
2019-03-22T18:26:56.918Z,101595.11
2019-03-22T18:31:59.292Z,101600.02
2019-03-22T18:37:01.890Z,101594.84
2019-03-22T18:42:04.540Z,101593.27
2019-03-22T18:47:07.011Z,101594.59
2019-03-22T18:52:09.418Z,101591.39
2019-03-22T18:57:12.723Z,101592.03
2019-03-22T19:02:15.326Z,101590.05
2019-03-22T19:07:17.693Z,101602.96
2019-03-22T19:12:20.094Z,101597.09
2019-03-22T19:17:22.463Z,101596.27
2019-03-22T19:22:24.834Z,101589.41
2019-03-22T19:27:27.488Z,101587.17
2019-03-22T19:32:29.876Z,101577.74
2019-03-22T19:37:32.269Z,101573.91
2019-03-22T19:42:35.072Z,101567.03
2019-03-22T19:47:37.483Z,101557.58
2019-03-22T19:52:39.952Z,101553.73
2019-03-22T19:57:42.433Z,101555.52
2019-03-22T20:02:44.912Z,101558.38
2019-03-22T20:07:47.268Z,101555.83
2019-03-22T20:12:49.684Z,101552.13
2019-03-22T20:17:52.241Z,101554.64
2019-03-22T20:22:54.768Z,101554.14
2019-03-22T20:27:57.317Z,101553.14
2019-03-22T20:33:00.164Z,101552.34
2019-03-22T20:38:02.700Z,101541.90
2019-03-22T20:43:05.204Z,101533.81
2019-03-22T20:48:07.909Z,101525.53
2019-03-22T20:53:13.310Z,101522.84
2019-03-22T20:58:15.692Z,101526.70
2019-03-22T21:03:18.097Z,101527.77
2019-03-22T21:08:20.467Z,101526.90
2019-03-22T21:13:22.877Z,101523.75
2019-03-22T21:18:25.260Z,101516.23
2019-03-22T21:23:35.984Z,101518.61
2019-03-22T21:28:32.049Z,101516.78
2019-03-22T21:33:34.530Z,101513.83
2019-03-22T21:38:37.080Z,101509.67
2019-03-22T21:43:39.487Z,101511.86
2019-03-22T21:48:42.889Z,101515.75
2019-03-22T21:53:45.502Z,101511.02
2019-03-22T21:58:47.930Z,101509.08
2019-03-22T22:03:50.393Z,101505.59
2019-03-22T22:08:52.775Z,101494.95
2019-03-22T22:13:55.165Z,101498.48
2019-03-22T22:18:57.645Z,101496.00
2019-03-22T22:24:00.029Z,101491.27
2019-03-22T22:29:02.520Z,101490.56
2019-03-22T22:34:05.886Z,101492.30
2019-03-22T22:39:08.252Z,101488.84
2019-03-22T22:44:11.658Z,101484.94
2019-03-22T22:49:14.053Z,101479.22
2019-03-22T22:54:16.404Z,101470.48
2019-03-22T22:59:18.811Z,101464.99
2019-03-22T23:04:21.515Z,101459.94
2019-03-22T23:09:23.878Z,101454.06
2019-03-22T23:14:26.613Z,101451.03
2019-03-22T23:19:29.097Z,101456.41
2019-03-22T23:24:32.363Z,101453.83
2019-03-22T23:29:34.832Z,101446.58
2019-03-22T23:34:37.180Z,101447.00
2019-03-22T23:39:39.593Z,101440.85
2019-03-22T23:44:41.964Z,101441.21
2019-03-22T23:49:44.328Z,101436.87
2019-03-22T23:54:49.262Z,101428.68
2019-03-22T23:59:51.636Z,101426.37
